Accueil
METAR-TAF:

METAR-TAF

Aéroports :

Red Oak Municipal Airport

Red Oak, Iowa, États-Unis

latitude: 41-01N, longitude: 095-16W, altitude: 318 m

Observation

Le bulletin a été fait il y a 21 minutes, à 15:35 UTC
Vent 12 kt de sud
Température 25°C
Humidité 32%
Pression 1019 hPa
Visibilité: 16.1 km
Ciel clair

METAR: KRDK 281535Z AUTO 18012KT 10SM CLR 25/07 A3009 RMK AO2

Heure: 10:56 (15:56 UTC)


TAF: absent

Observations et prévisions météorologiques de plus de 4000 aéroports (messages METAR et TAF).

Les stations disponibles sont représentées par des disques jaunes et rouges sur la carte.

Passer la souris dessus pour voir le nom de la station.

Cliquer dessus pour voir les observations et prévisions météorologiques.

Pour changer de carte: cliquez sur les boutons verts avec une croix noire pour zoomer, sur le bouton vert avec un tiret pour effectuer un zoom arrière, ou sur les flèches vertes pour les cartes adjacentes.


METAR-TAF: